sensor_id;sensor_type;location;lat;lon;timestamp;P1;durP1;ratioP1;P2;durP2;ratioP2
14013;SDS011;49110;52.584;13.408;2023-02-05T00:00:17;8.70;;;5.80;;
14013;SDS011;49110;52.584;13.408;2023-02-05T00:01:19;7.38;;;4.50;;
14013;SDS011;49110;52.584;13.408;2023-02-05T00:02:19;6.63;;;4.43;;
14013;SDS011;49110;52.584;13.408;2023-02-05T00:03:20;5.73;;;4.63;;
14013;SDS011;49110;52.584;13.408;2023-02-05T00:04:20;5.67;;;4.23;;
14013;SDS011;49110;52.584;13.408;2023-02-05T00:05:21;7.70;;;4.33;;
14013;SDS011;49110;52.584;13.408;2023-02-05T00:06:21;5.27;;;4.37;;
14013;SDS011;49110;52.584;13.408;2023-02-05T00:07:22;7.43;;;4.57;;
14013;SDS011;49110;52.584;13.408;2023-02-05T00:08:23;6.43;;;4.87;;
14013;SDS011;49110;52.584;13.408;2023-02-05T00:09:26;9.02;;;4.65;;
14013;SDS011;49110;52.584;13.408;2023-02-05T00:10:29;6.53;;;4.97;;
14013;SDS011;49110;52.584;13.408;2023-02-05T00:11:30;8.77;;;4.73;;
14013;SDS011;49110;52.584;13.408;2023-02-05T00:12:30;7.07;;;4.87;;
14013;SDS011;49110;52.584;13.408;2023-02-05T00:13:31;6.63;;;4.80;;
14013;SDS011;49110;52.584;13.408;2023-02-05T00:14:31;6.87;;;4.80;;
14013;SDS011;49110;52.584;13.408;2023-02-05T00:15:32;8.57;;;5.33;;
14013;SDS011;49110;52.584;13.408;2023-02-05T00:16:33;8.83;;;5.30;;
14013;SDS011;49110;52.584;13.408;2023-02-05T00:17:34;5.90;;;5.30;;
14013;SDS011;49110;52.584;13.408;2023-02-05T00:18:36;10.23;;;5.57;;
14013;SDS011;49110;52.584;13.408;2023-02-05T00:19:37;7.70;;;5.57;;
14013;SDS011;49110;52.584;13.408;2023-02-05T00:20:37;7.07;;;5.40;;
14013;SDS011;49110;52.584;13.408;2023-02-05T00:21:38;8.47;;;5.43;;
14013;SDS011;49110;52.584;13.408;2023-02-05T00:22:39;6.53;;;5.23;;
14013;SDS011;49110;52.584;13.408;2023-02-05T00:23:39;6.83;;;5.50;;
14013;SDS011;49110;52.584;13.408;2023-02-05T00:24:40;6.65;;;5.82;;
14013;SDS011;49110;52.584;13.408;2023-02-05T00:25:41;8.30;;;6.57;;
14013;SDS011;49110;52.584;13.408;2023-02-05T00:26:41;9.30;;;6.03;;
14013;SDS011;49110;52.584;13.408;2023-02-05T00:27:42;7.70;;;5.50;;
14013;SDS011;49110;52.584;13.408;2023-02-05T00:28:43;7.30;;;5.27;;
14013;SDS011;49110;52.584;13.408;2023-02-05T00:29:43;7.25;;;4.80;;
14013;SDS011;49110;52.584;13.408;2023-02-05T00:30:44;8.13;;;5.77;;
14013;SDS011;49110;52.584;13.408;2023-02-05T00:31:44;6.63;;;5.30;;
14013;SDS011;49110;52.584;13.408;2023-02-05T00:32:48;10.95;;;6.70;;
14013;SDS011;49110;52.584;13.408;2023-02-05T00:33:49;9.03;;;6.63;;
14013;SDS011;49110;52.584;13.408;2023-02-05T00:34:50;6.82;;;5.70;;
14013;SDS011;49110;52.584;13.408;2023-02-05T00:35:51;7.43;;;5.53;;
14013;SDS011;49110;52.584;13.408;2023-02-05T00:36:51;7.43;;;5.83;;
14013;SDS011;49110;52.584;13.408;2023-02-05T00:37:52;9.00;;;6.20;;
14013;SDS011;49110;52.584;13.408;2023-02-05T00:38:52;7.17;;;5.70;;
14013;SDS011;49110;52.584;13.408;2023-02-05T00:39:53;8.90;;;6.17;;
14013;SDS011;49110;52.584;13.408;2023-02-05T00:40:53;7.30;;;5.73;;
14013;SDS011;49110;52.584;13.408;2023-02-05T00:41:54;9.03;;;6.40;;
14013;SDS011;49110;52.584;13.408;2023-02-05T00:42:54;8.17;;;5.80;;
14013;SDS011;49110;52.584;13.408;2023-02-05T00:43:55;10.00;;;6.20;;
14013;SDS011;49110;52.584;13.408;2023-02-05T00:44:55;6.67;;;5.20;;
14013;SDS011;49110;52.584;13.408;2023-02-05T00:45:56;7.30;;;5.83;;
14013;SDS011;49110;52.584;13.408;2023-02-05T00:46:56;8.30;;;5.60;;
14013;SDS011;49110;52.584;13.408;2023-02-05T00:47:57;9.37;;;5.87;;
14013;SDS011;49110;52.584;13.408;2023-02-05T00:48:57;7.70;;;5.90;;
14013;SDS011;49110;52.584;13.408;2023-02-05T00:49:58;6.28;;;4.97;;
14013;SDS011;49110;52.584;13.408;2023-02-05T00:50:59;5.90;;;5.30;;
14013;SDS011;49110;52.584;13.408;2023-02-05T00:51:59;6.67;;;5.13;;
14013;SDS011;49110;52.584;13.408;2023-02-05T00:53:00;7.17;;;4.83;;
14013;SDS011;49110;52.584;13.408;2023-02-05T00:54:01;7.27;;;5.03;;
14013;SDS011;49110;52.584;13.408;2023-02-05T00:55:01;6.60;;;4.70;;
14013;SDS011;49110;52.584;13.408;2023-02-05T00:56:02;7.20;;;4.50;;
14013;SDS011;49110;52.584;13.408;2023-02-05T00:57:02;5.70;;;4.47;;
14013;SDS011;49110;52.584;13.408;2023-02-05T00:58:03;6.13;;;4.30;;
14013;SDS011;49110;52.584;13.408;2023-02-05T00:59:04;6.57;;;4.53;;
14013;SDS011;49110;52.584;13.408;2023-02-05T01:00:04;5.50;;;4.33;;
14013;SDS011;49110;52.584;13.408;2023-02-05T01:01:05;5.57;;;4.35;;
14013;SDS011;49110;52.584;13.408;2023-02-05T01:02:06;5.30;;;4.40;;
14013;SDS011;49110;52.584;13.408;2023-02-05T01:03:07;7.57;;;4.50;;
14013;SDS011;49110;52.584;13.408;2023-02-05T01:04:08;8.35;;;4.75;;
14013;SDS011;49110;52.584;13.408;2023-02-05T01:05:08;11.23;;;4.37;;
14013;SDS011;49110;52.584;13.408;2023-02-05T01:06:09;5.33;;;4.10;;
14013;SDS011;49110;52.584;13.408;2023-02-05T01:07:09;6.83;;;4.20;;
14013;SDS011;49110;52.584;13.408;2023-02-05T01:08:10;6.10;;;3.90;;
14013;SDS011;49110;52.584;13.408;2023-02-05T01:09:12;5.38;;;4.30;;
14013;SDS011;49110;52.584;13.408;2023-02-05T01:10:12;6.00;;;4.80;;
14013;SDS011;49110;52.584;13.408;2023-02-05T01:11:13;5.43;;;4.70;;
14013;SDS011;49110;52.584;13.408;2023-02-05T01:12:14;6.05;;;4.43;;
14013;SDS011;49110;52.584;13.408;2023-02-05T01:13:14;5.47;;;4.57;;
14013;SDS011;49110;52.584;13.408;2023-02-05T01:14:16;5.80;;;4.70;;
14013;SDS011;49110;52.584;13.408;2023-02-05T01:15:16;4.83;;;4.20;;
14013;SDS011;49110;52.584;13.408;2023-02-05T01:16:17;6.87;;;4.57;;
14013;SDS011;49110;52.584;13.408;2023-02-05T01:17:18;5.90;;;4.70;;
14013;SDS011;49110;52.584;13.408;2023-02-05T01:18:19;6.40;;;4.88;;
14013;SDS011;49110;52.584;13.408;2023-02-05T01:19:20;7.40;;;4.60;;
14013;SDS011;49110;52.584;13.408;2023-02-05T01:20:20;6.27;;;4.77;;
14013;SDS011;49110;52.584;13.408;2023-02-05T01:21:21;6.70;;;4.60;;
14013;SDS011;49110;52.584;13.408;2023-02-05T01:22:24;5.63;;;4.10;;
14013;SDS011;49110;52.584;13.408;2023-02-05T01:23:24;5.30;;;3.80;;
14013;SDS011;49110;52.584;13.408;2023-02-05T01:24:25;7.20;;;4.80;;
14013;SDS011;49110;52.584;13.408;2023-02-05T01:25:25;5.83;;;4.47;;
14013;SDS011;49110;52.584;13.408;2023-02-05T01:26:26;6.03;;;4.23;;
14013;SDS011;49110;52.584;13.408;2023-02-05T01:27:26;5.80;;;4.50;;
14013;SDS011;49110;52.584;13.408;2023-02-05T01:28:27;5.63;;;4.03;;
14013;SDS011;49110;52.584;13.408;2023-02-05T01:29:27;5.43;;;4.20;;
14013;SDS011;49110;52.584;13.408;2023-02-05T01:30:29;5.57;;;4.25;;
14013;SDS011;49110;52.584;13.408;2023-02-05T01:31:29;6.67;;;4.43;;
14013;SDS011;49110;52.584;13.408;2023-02-05T01:32:32;5.40;;;3.70;;
14013;SDS011;49110;52.584;13.408;2023-02-05T01:33:32;5.47;;;4.07;;
14013;SDS011;49110;52.584;13.408;2023-02-05T01:34:33;4.70;;;3.60;;
14013;SDS011;49110;52.584;13.408;2023-02-05T01:35:33;3.67;;;3.27;;
14013;SDS011;49110;52.584;13.408;2023-02-05T01:36:34;4.37;;;3.43;;
14013;SDS011;49110;52.584;13.408;2023-02-05T01:37:34;5.87;;;3.80;;
14013;SDS011;49110;52.584;13.408;2023-02-05T01:38:35;4.70;;;3.67;;
14013;SDS011;49110;52.584;13.408;2023-02-05T01:39:36;4.87;;;3.70;;
14013;SDS011;49110;52.584;13.408;2023-02-05T01:40:37;6.90;;;3.72;;
14013;SDS011;49110;52.584;13.408;2023-02-05T01:41:37;5.93;;;3.93;;
14013;SDS011;49110;52.584;13.408;2023-02-05T01:42:41;3.63;;;3.20;;
14013;SDS011;49110;52.584;13.408;2023-02-05T01:43:42;7.77;;;4.10;;
14013;SDS011;49110;52.584;13.408;2023-02-05T01:44:42;5.00;;;3.43;;
14013;SDS011;49110;52.584;13.408;2023-02-05T01:45:46;5.33;;;3.70;;
14013;SDS011;49110;52.584;13.408;2023-02-05T01:46:58;4.88;;;3.60;;
14013;SDS011;49110;52.584;13.408;2023-02-05T01:47:59;4.67;;;3.67;;
14013;SDS011;49110;52.584;13.408;2023-02-05T01:49:02;5.28;;;4.18;;
14013;SDS011;49110;52.584;13.408;2023-02-05T01:50:05;5.13;;;3.53;;
14013;SDS011;49110;52.584;13.408;2023-02-05T01:51:06;4.43;;;3.50;;
14013;SDS011;49110;52.584;13.408;2023-02-05T01:52:11;7.35;;;4.07;;
14013;SDS011;49110;52.584;13.408;2023-02-05T01:53:17;5.18;;;3.60;;
14013;SDS011;49110;52.584;13.408;2023-02-05T01:54:21;5.82;;;4.43;;
14013;SDS011;49110;52.584;13.408;2023-02-05T01:55:25;5.85;;;4.00;;
14013;SDS011;49110;52.584;13.408;2023-02-05T01:56:31;5.90;;;4.60;;
14013;SDS011;49110;52.584;13.408;2023-02-05T01:57:35;5.28;;;4.40;;
14013;SDS011;49110;52.584;13.408;2023-02-05T01:58:40;5.90;;;4.28;;
14013;SDS011;49110;52.584;13.408;2023-02-05T01:59:44;4.57;;;4.18;;
14013;SDS011;49110;52.584;13.408;2023-02-05T02:00:46;7.15;;;4.38;;
14013;SDS011;49110;52.584;13.408;2023-02-05T02:01:47;5.20;;;4.17;;
14013;SDS011;49110;52.584;13.408;2023-02-05T02:02:47;5.27;;;4.50;;
14013;SDS011;49110;52.584;13.408;2023-02-05T02:03:48;10.00;;;4.20;;
14013;SDS011;49110;52.584;13.408;2023-02-05T02:04:54;5.57;;;4.35;;
14013;SDS011;49110;52.584;13.408;2023-02-05T02:05:57;5.75;;;4.50;;
14013;SDS011;49110;52.584;13.408;2023-02-05T02:06:59;5.47;;;4.07;;
14013;SDS011;49110;52.584;13.408;2023-02-05T02:08:01;6.82;;;4.05;;
14013;SDS011;49110;52.584;13.408;2023-02-05T02:09:02;5.93;;;4.40;;
14013;SDS011;49110;52.584;13.408;2023-02-05T02:10:05;6.43;;;4.43;;
14013;SDS011;49110;52.584;13.408;2023-02-05T02:11:08;7.70;;;4.78;;
14013;SDS011;49110;52.584;13.408;2023-02-05T02:12:14;5.25;;;4.43;;
14013;SDS011;49110;52.584;13.408;2023-02-05T02:13:19;6.78;;;4.35;;
14013;SDS011;49110;52.584;13.408;2023-02-05T02:14:22;5.78;;;3.97;;
14013;SDS011;49110;52.584;13.408;2023-02-05T02:15:24;5.65;;;4.63;;
14013;SDS011;49110;52.584;13.408;2023-02-05T02:16:27;5.57;;;4.07;;
14013;SDS011;49110;52.584;13.408;2023-02-05T02:17:29;7.85;;;4.40;;
14013;SDS011;49110;52.584;13.408;2023-02-05T02:18:38;5.38;;;4.18;;
14013;SDS011;49110;52.584;13.408;2023-02-05T02:19:58;7.60;;;4.30;;
14013;SDS011;49110;52.584;13.408;2023-02-05T02:21:24;4.97;;;4.03;;
14013;SDS011;49110;52.584;13.408;2023-02-05T02:22:47;7.20;;;4.18;;
14013;SDS011;49110;52.584;13.408;2023-02-05T02:29:23;6.35;;;4.38;;
14013;SDS011;49110;52.584;13.408;2023-02-05T02:30:41;5.32;;;4.45;;
14013;SDS011;49110;52.584;13.408;2023-02-05T02:31:50;5.35;;;4.50;;
14013;SDS011;49110;52.584;13.408;2023-02-05T02:34:22;5.32;;;4.40;;
14013;SDS011;49110;52.584;13.408;2023-02-05T02:35:43;4.95;;;4.10;;
14013;SDS011;49110;52.584;13.408;2023-02-05T02:37:00;6.50;;;4.10;;
14013;SDS011;49110;52.584;13.408;2023-02-05T02:38:21;5.80;;;4.40;;
14013;SDS011;49110;52.584;13.408;2023-02-05T02:39:25;5.55;;;4.53;;
14013;SDS011;49110;52.584;13.408;2023-02-05T02:40:49;5.32;;;3.75;;
14013;SDS011;49110;52.584;13.408;2023-02-05T02:41:54;7.10;;;4.75;;
14013;SDS011;49110;52.584;13.408;2023-02-05T02:43:03;6.15;;;4.43;;
14013;SDS011;49110;52.584;13.408;2023-02-05T02:44:11;5.32;;;3.92;;
14013;SDS011;49110;52.584;13.408;2023-02-05T02:45:15;4.60;;;4.20;;
14013;SDS011;49110;52.584;13.408;2023-02-05T02:46:22;5.03;;;4.05;;
14013;SDS011;49110;52.584;13.408;2023-02-05T02:47:41;4.78;;;4.07;;
14013;SDS011;49110;52.584;13.408;2023-02-05T02:48:48;5.18;;;3.90;;
14013;SDS011;49110;52.584;13.408;2023-02-05T02:49:53;7.38;;;4.75;;
14013;SDS011;49110;52.584;13.408;2023-02-05T02:50:57;5.20;;;4.43;;
14013;SDS011;49110;52.584;13.408;2023-02-05T02:52:01;6.25;;;4.20;;
14013;SDS011;49110;52.584;13.408;2023-02-05T02:53:09;5.55;;;3.75;;
14013;SDS011;49110;52.584;13.408;2023-02-05T02:54:13;5.35;;;4.60;;
14013;SDS011;49110;52.584;13.408;2023-02-05T02:55:17;5.75;;;4.20;;
14013;SDS011;49110;52.584;13.408;2023-02-05T02:56:20;5.20;;;4.25;;
14013;SDS011;49110;52.584;13.408;2023-02-05T02:57:25;6.22;;;4.50;;
14013;SDS011;49110;52.584;13.408;2023-02-05T02:58:28;6.72;;;4.28;;
14013;SDS011;49110;52.584;13.408;2023-02-05T02:59:31;5.80;;;4.53;;
14013;SDS011;49110;52.584;13.408;2023-02-05T03:00:35;7.20;;;4.57;;
14013;SDS011;49110;52.584;13.408;2023-02-05T03:01:39;6.38;;;4.70;;
14013;SDS011;49110;52.584;13.408;2023-02-05T03:02:41;7.70;;;4.93;;
14013;SDS011;49110;52.584;13.408;2023-02-05T03:03:46;4.97;;;4.38;;
14013;SDS011;49110;52.584;13.408;2023-02-05T03:04:52;7.80;;;4.65;;
14013;SDS011;49110;52.584;13.408;2023-02-05T03:05:56;5.70;;;4.45;;
14013;SDS011;49110;52.584;13.408;2023-02-05T03:07:01;6.88;;;4.78;;
14013;SDS011;49110;52.584;13.408;2023-02-05T03:09:03;6.50;;;4.90;;
14013;SDS011;49110;52.584;13.408;2023-02-05T03:11:40;6.00;;;4.72;;
14013;SDS011;49110;52.584;13.408;2023-02-05T03:12:40;7.30;;;4.90;;
14013;SDS011;49110;52.584;13.408;2023-02-05T03:13:41;6.20;;;4.70;;
14013;SDS011;49110;52.584;13.408;2023-02-05T03:14:43;7.22;;;4.57;;
14013;SDS011;49110;52.584;13.408;2023-02-05T03:15:44;6.13;;;4.80;;
14013;SDS011;49110;52.584;13.408;2023-02-05T03:16:45;9.10;;;4.78;;
14013;SDS011;49110;52.584;13.408;2023-02-05T03:17:46;7.37;;;4.70;;
14013;SDS011;49110;52.584;13.408;2023-02-05T03:18:47;6.18;;;4.88;;
14013;SDS011;49110;52.584;13.408;2023-02-05T03:19:49;5.57;;;4.73;;
14013;SDS011;49110;52.584;13.408;2023-02-05T03:20:57;7.25;;;4.60;;
14013;SDS011;49110;52.584;13.408;2023-02-05T03:22:03;7.32;;;5.00;;
14013;SDS011;49110;52.584;13.408;2023-02-05T03:23:04;6.82;;;4.80;;
14013;SDS011;49110;52.584;13.408;2023-02-05T03:24:04;7.67;;;5.07;;
14013;SDS011;49110;52.584;13.408;2023-02-05T03:25:05;4.90;;;4.43;;
14013;SDS011;49110;52.584;13.408;2023-02-05T03:27:27;5.97;;;4.95;;
14013;SDS011;49110;52.584;13.408;2023-02-05T03:28:28;6.87;;;5.23;;
14013;SDS011;49110;52.584;13.408;2023-02-05T03:29:33;8.20;;;4.83;;
14013;SDS011;49110;52.584;13.408;2023-02-05T03:30:41;7.00;;;5.22;;
14013;SDS011;49110;52.584;13.408;2023-02-05T03:33:20;7.57;;;5.10;;
14013;SDS011;49110;52.584;13.408;2023-02-05T03:35:00;7.45;;;4.90;;
14013;SDS011;49110;52.584;13.408;2023-02-05T03:36:16;5.82;;;4.95;;
14013;SDS011;49110;52.584;13.408;2023-02-05T03:39:02;7.43;;;5.00;;
14013;SDS011;49110;52.584;13.408;2023-02-05T03:40:16;7.68;;;4.70;;
14013;SDS011;49110;52.584;13.408;2023-02-05T03:44:09;6.63;;;4.85;;
14013;SDS011;49110;52.584;13.408;2023-02-05T03:45:25;7.00;;;5.20;;
14013;SDS011;49110;52.584;13.408;2023-02-05T03:46:58;7.47;;;5.05;;
14013;SDS011;49110;52.584;13.408;2023-02-05T03:48:08;7.28;;;5.10;;
14013;SDS011;49110;52.584;13.408;2023-02-05T03:49:34;6.78;;;4.47;;
14013;SDS011;49110;52.584;13.408;2023-02-05T03:52:22;6.00;;;4.88;;
14013;SDS011;49110;52.584;13.408;2023-02-05T03:55:13;6.95;;;4.97;;
14013;SDS011;49110;52.584;13.408;2023-02-05T03:56:22;6.55;;;4.55;;
14013;SDS011;49110;52.584;13.408;2023-02-05T03:57:30;7.20;;;5.28;;
14013;SDS011;49110;52.584;13.408;2023-02-05T03:58:42;6.70;;;4.93;;
14013;SDS011;49110;52.584;13.408;2023-02-05T03:59:48;7.10;;;4.90;;
14013;SDS011;49110;52.584;13.408;2023-02-05T04:00:49;6.75;;;4.93;;
14013;SDS011;49110;52.584;13.408;2023-02-05T04:01:50;6.43;;;4.80;;
14013;SDS011;49110;52.584;13.408;2023-02-05T04:02:51;7.88;;;5.22;;
14013;SDS011;49110;52.584;13.408;2023-02-05T04:03:52;6.63;;;4.93;;
14013;SDS011;49110;52.584;13.408;2023-02-05T04:04:53;9.33;;;4.97;;
14013;SDS011;49110;52.584;13.408;2023-02-05T04:05:53;5.30;;;4.73;;
14013;SDS011;49110;52.584;13.408;2023-02-05T04:06:55;6.65;;;4.35;;
14013;SDS011;49110;52.584;13.408;2023-02-05T04:07:56;6.97;;;5.20;;
14013;SDS011;49110;52.584;13.408;2023-02-05T04:08:56;5.57;;;4.73;;
14013;SDS011;49110;52.584;13.408;2023-02-05T04:09:57;6.63;;;4.87;;
14013;SDS011;49110;52.584;13.408;2023-02-05T04:10:57;6.37;;;4.60;;
14013;SDS011;49110;52.584;13.408;2023-02-05T04:11:58;6.10;;;5.00;;
14013;SDS011;49110;52.584;13.408;2023-02-05T04:12:58;5.93;;;4.63;;
14013;SDS011;49110;52.584;13.408;2023-02-05T04:13:58;5.63;;;4.47;;
14013;SDS011;49110;52.584;13.408;2023-02-05T04:14:59;7.23;;;5.23;;
14013;SDS011;49110;52.584;13.408;2023-02-05T04:15:59;7.03;;;5.40;;
14013;SDS011;49110;52.584;13.408;2023-02-05T04:17:00;6.50;;;5.00;;
14013;SDS011;49110;52.584;13.408;2023-02-05T04:18:00;6.67;;;4.73;;
14013;SDS011;49110;52.584;13.408;2023-02-05T04:19:01;7.60;;;5.37;;
14013;SDS011;49110;52.584;13.408;2023-02-05T04:20:02;6.47;;;5.30;;
14013;SDS011;49110;52.584;13.408;2023-02-05T04:21:03;6.43;;;5.22;;
14013;SDS011;49110;52.584;13.408;2023-02-05T04:22:04;6.30;;;4.87;;
14013;SDS011;49110;52.584;13.408;2023-02-05T04:23:05;6.57;;;5.13;;
14013;SDS011;49110;52.584;13.408;2023-02-05T04:24:05;7.83;;;5.10;;
14013;SDS011;49110;52.584;13.408;2023-02-05T04:25:06;6.97;;;5.50;;
14013;SDS011;49110;52.584;13.408;2023-02-05T04:26:07;7.37;;;5.83;;
14013;SDS011;49110;52.584;13.408;2023-02-05T04:27:07;8.77;;;5.90;;
14013;SDS011;49110;52.584;13.408;2023-02-05T04:28:08;7.93;;;5.97;;
14013;SDS011;49110;52.584;13.408;2023-02-05T04:29:09;7.25;;;5.97;;
14013;SDS011;49110;52.584;13.408;2023-02-05T04:30:09;9.10;;;6.10;;
14013;SDS011;49110;52.584;13.408;2023-02-05T04:31:11;7.75;;;6.15;;
14013;SDS011;49110;52.584;13.408;2023-02-05T04:32:11;6.90;;;5.70;;
14013;SDS011;49110;52.584;13.408;2023-02-05T04:33:12;6.73;;;5.83;;
14013;SDS011;49110;52.584;13.408;2023-02-05T04:34:12;9.97;;;6.47;;
14013;SDS011;49110;52.584;13.408;2023-02-05T04:35:13;6.73;;;5.93;;
14013;SDS011;49110;52.584;13.408;2023-02-05T04:36:13;9.03;;;6.33;;
14013;SDS011;49110;52.584;13.408;2023-02-05T04:37:14;9.57;;;6.10;;
14013;SDS011;49110;52.584;13.408;2023-02-05T04:38:14;7.90;;;5.93;;
14013;SDS011;49110;52.584;13.408;2023-02-05T04:39:15;7.80;;;6.40;;
14013;SDS011;49110;52.584;13.408;2023-02-05T04:40:15;8.63;;;5.93;;
14013;SDS011;49110;52.584;13.408;2023-02-05T04:41:16;7.13;;;6.07;;
14013;SDS011;49110;52.584;13.408;2023-02-05T04:42:17;7.43;;;5.97;;
14013;SDS011;49110;52.584;13.408;2023-02-05T04:43:17;6.40;;;5.67;;
14013;SDS011;49110;52.584;13.408;2023-02-05T04:44:18;7.73;;;5.80;;
14013;SDS011;49110;52.584;13.408;2023-02-05T04:45:18;7.10;;;6.37;;
14013;SDS011;49110;52.584;13.408;2023-02-05T04:46:19;9.47;;;6.40;;
14013;SDS011;49110;52.584;13.408;2023-02-05T04:47:19;10.83;;;6.37;;
14013;SDS011;49110;52.584;13.408;2023-02-05T04:48:20;7.67;;;6.27;;
14013;SDS011;49110;52.584;13.408;2023-02-05T04:49:20;8.73;;;6.20;;
14013;SDS011;49110;52.584;13.408;2023-02-05T04:50:21;8.97;;;6.77;;
14013;SDS011;49110;52.584;13.408;2023-02-05T04:51:22;8.98;;;6.70;;
14013;SDS011;49110;52.584;13.408;2023-02-05T04:52:22;8.43;;;6.37;;
14013;SDS011;49110;52.584;13.408;2023-02-05T04:53:23;6.50;;;5.67;;
14013;SDS011;49110;52.584;13.408;2023-02-05T04:54:23;7.20;;;5.90;;
14013;SDS011;49110;52.584;13.408;2023-02-05T04:55:24;8.30;;;6.03;;
14013;SDS011;49110;52.584;13.408;2023-02-05T04:56:25;9.30;;;6.03;;
14013;SDS011;49110;52.584;13.408;2023-02-05T04:57:25;7.33;;;5.83;;
14013;SDS011;49110;52.584;13.408;2023-02-05T04:58:26;8.63;;;5.90;;
14013;SDS011;49110;52.584;13.408;2023-02-05T04:59:26;8.13;;;6.23;;
14013;SDS011;49110;52.584;13.408;2023-02-05T05:00:28;8.98;;;6.43;;
14013;SDS011;49110;52.584;13.408;2023-02-05T05:01:29;8.17;;;6.30;;
14013;SDS011;49110;52.584;13.408;2023-02-05T05:02:30;9.33;;;6.33;;
14013;SDS011;49110;52.584;13.408;2023-02-05T05:03:30;7.27;;;6.17;;
14013;SDS011;49110;52.584;13.408;2023-02-05T05:04:31;8.17;;;6.33;;
14013;SDS011;49110;52.584;13.408;2023-02-05T05:05:33;7.10;;;6.00;;
14013;SDS011;49110;52.584;13.408;2023-02-05T05:06:35;8.82;;;6.20;;
14013;SDS011;49110;52.584;13.408;2023-02-05T05:07:35;9.17;;;5.53;;
14013;SDS011;49110;52.584;13.408;2023-02-05T05:08:36;8.37;;;6.20;;
14013;SDS011;49110;52.584;13.408;2023-02-05T05:09:36;7.23;;;5.93;;
14013;SDS011;49110;52.584;13.408;2023-02-05T05:10:37;10.37;;;6.20;;
14013;SDS011;49110;52.584;13.408;2023-02-05T05:11:38;9.43;;;6.27;;
14013;SDS011;49110;52.584;13.408;2023-02-05T05:12:39;9.82;;;6.30;;
14013;SDS011;49110;52.584;13.408;2023-02-05T05:13:41;10.40;;;6.20;;
14013;SDS011;49110;52.584;13.408;2023-02-05T05:14:42;9.18;;;6.05;;
14013;SDS011;49110;52.584;13.408;2023-02-05T05:15:43;8.20;;;6.10;;
14013;SDS011;49110;52.584;13.408;2023-02-05T05:16:43;7.40;;;5.97;;
14013;SDS011;49110;52.584;13.408;2023-02-05T05:17:44;8.87;;;6.33;;
14013;SDS011;49110;52.584;13.408;2023-02-05T05:18:44;9.50;;;7.17;;
14013;SDS011;49110;52.584;13.408;2023-02-05T05:19:45;8.73;;;6.63;;
14013;SDS011;49110;52.584;13.408;2023-02-05T05:20:45;9.20;;;6.70;;
14013;SDS011;49110;52.584;13.408;2023-02-05T05:21:46;8.30;;;6.40;;
14013;SDS011;49110;52.584;13.408;2023-02-05T05:22:46;10.03;;;6.40;;
14013;SDS011;49110;52.584;13.408;2023-02-05T05:23:47;9.63;;;7.03;;
14013;SDS011;49110;52.584;13.408;2023-02-05T05:24:47;11.47;;;7.23;;
14013;SDS011;49110;52.584;13.408;2023-02-05T05:25:48;9.23;;;6.67;;
14013;SDS011;49110;52.584;13.408;2023-02-05T05:26:48;9.70;;;7.03;;
14013;SDS011;49110;52.584;13.408;2023-02-05T05:27:49;8.37;;;7.13;;
14013;SDS011;49110;52.584;13.408;2023-02-05T05:28:53;12.10;;;7.60;;
14013;SDS011;49110;52.584;13.408;2023-02-05T05:29:54;9.75;;;7.22;;
14013;SDS011;49110;52.584;13.408;2023-02-05T05:30:55;9.77;;;6.90;;
14013;SDS011;49110;52.584;13.408;2023-02-05T05:31:55;8.63;;;6.97;;
14013;SDS011;49110;52.584;13.408;2023-02-05T05:32:56;9.23;;;7.13;;
14013;SDS011;49110;52.584;13.408;2023-02-05T05:33:56;10.13;;;7.10;;
14013;SDS011;49110;52.584;13.408;2023-02-05T05:34:57;9.50;;;7.50;;
14013;SDS011;49110;52.584;13.408;2023-02-05T05:35:57;8.77;;;7.17;;
14013;SDS011;49110;52.584;13.408;2023-02-05T05:36:58;9.40;;;7.57;;
14013;SDS011;49110;52.584;13.408;2023-02-05T05:37:58;12.60;;;7.60;;
14013;SDS011;49110;52.584;13.408;2023-02-05T05:39:00;11.45;;;7.57;;
14013;SDS011;49110;52.584;13.408;2023-02-05T05:40:20;9.55;;;6.72;;
14013;SDS011;49110;52.584;13.408;2023-02-05T05:41:39;9.00;;;7.22;;
14013;SDS011;49110;52.584;13.408;2023-02-05T05:42:58;10.20;;;7.28;;
14013;SDS011;49110;52.584;13.408;2023-02-05T05:44:17;10.30;;;6.80;;
14013;SDS011;49110;52.584;13.408;2023-02-05T05:45:18;10.07;;;7.70;;
14013;SDS011;49110;52.584;13.408;2023-02-05T05:46:22;7.97;;;6.67;;
14013;SDS011;49110;52.584;13.408;2023-02-05T05:47:25;11.13;;;6.82;;
14013;SDS011;49110;52.584;13.408;2023-02-05T05:48:25;8.50;;;7.30;;
14013;SDS011;49110;52.584;13.408;2023-02-05T05:49:26;10.73;;;7.10;;
14013;SDS011;49110;52.584;13.408;2023-02-05T05:50:27;8.37;;;7.07;;
14013;SDS011;49110;52.584;13.408;2023-02-05T05:51:28;9.40;;;7.27;;
14013;SDS011;49110;52.584;13.408;2023-02-05T05:52:29;9.13;;;7.32;;
14013;SDS011;49110;52.584;13.408;2023-02-05T05:53:30;10.40;;;7.30;;
14013;SDS011;49110;52.584;13.408;2023-02-05T05:54:31;8.23;;;7.30;;
14013;SDS011;49110;52.584;13.408;2023-02-05T05:55:31;8.03;;;6.93;;
14013;SDS011;49110;52.584;13.408;2023-02-05T05:56:32;8.27;;;6.70;;
14013;SDS011;49110;52.584;13.408;2023-02-05T05:57:32;9.67;;;6.83;;
14013;SDS011;49110;52.584;13.408;2023-02-05T05:58:33;10.80;;;7.17;;
14013;SDS011;49110;52.584;13.408;2023-02-05T05:59:33;10.57;;;7.30;;
14013;SDS011;49110;52.584;13.408;2023-02-05T06:00:34;9.87;;;7.10;;
14013;SDS011;49110;52.584;13.408;2023-02-05T06:01:36;9.98;;;7.00;;
14013;SDS011;49110;52.584;13.408;2023-02-05T06:02:39;11.27;;;7.47;;
14013;SDS011;49110;52.584;13.408;2023-02-05T06:03:40;10.63;;;7.40;;
14013;SDS011;49110;52.584;13.408;2023-02-05T06:04:41;8.37;;;6.73;;
14013;SDS011;49110;52.584;13.408;2023-02-05T06:05:41;11.53;;;7.70;;
14013;SDS011;49110;52.584;13.408;2023-02-05T06:06:41;10.87;;;7.37;;
14013;SDS011;49110;52.584;13.408;2023-02-05T06:07:42;9.97;;;7.77;;
14013;SDS011;49110;52.584;13.408;2023-02-05T06:08:42;9.50;;;7.37;;
14013;SDS011;49110;52.584;13.408;2023-02-05T06:09:43;11.00;;;7.70;;
14013;SDS011;49110;52.584;13.408;2023-02-05T06:10:44;8.83;;;7.07;;
14013;SDS011;49110;52.584;13.408;2023-02-05T06:11:44;11.53;;;7.57;;
14013;SDS011;49110;52.584;13.408;2023-02-05T06:12:45;10.60;;;7.53;;
14013;SDS011;49110;52.584;13.408;2023-02-05T06:13:45;9.20;;;7.67;;
14013;SDS011;49110;52.584;13.408;2023-02-05T06:14:46;11.73;;;7.50;;
14013;SDS011;49110;52.584;13.408;2023-02-05T06:15:46;9.57;;;7.40;;
14013;SDS011;49110;52.584;13.408;2023-02-05T06:16:47;10.43;;;7.47;;
14013;SDS011;49110;52.584;13.408;2023-02-05T06:17:48;12.23;;;7.70;;
14013;SDS011;49110;52.584;13.408;2023-02-05T06:18:48;12.17;;;7.77;;
14013;SDS011;49110;52.584;13.408;2023-02-05T06:19:49;8.93;;;7.13;;
14013;SDS011;49110;52.584;13.408;2023-02-05T06:20:50;8.67;;;6.83;;
14013;SDS011;49110;52.584;13.408;2023-02-05T06:21:50;10.70;;;8.03;;
14013;SDS011;49110;52.584;13.408;2023-02-05T06:22:51;9.37;;;7.47;;
14013;SDS011;49110;52.584;13.408;2023-02-05T06:23:51;10.10;;;7.20;;
14013;SDS011;49110;52.584;13.408;2023-02-05T06:24:52;8.93;;;7.00;;
14013;SDS011;49110;52.584;13.408;2023-02-05T06:25:52;8.87;;;7.27;;
14013;SDS011;49110;52.584;13.408;2023-02-05T06:26:53;9.37;;;6.90;;
14013;SDS011;49110;52.584;13.408;2023-02-05T06:27:53;9.53;;;6.73;;
14013;SDS011;49110;52.584;13.408;2023-02-05T06:28:54;9.83;;;7.37;;
14013;SDS011;49110;52.584;13.408;2023-02-05T06:29:56;9.45;;;7.82;;
14013;SDS011;49110;52.584;13.408;2023-02-05T06:30:56;10.73;;;7.87;;
14013;SDS011;49110;52.584;13.408;2023-02-05T06:31:57;9.13;;;7.70;;